Pavonia, Ohio
Current Conditions -  °F | °C
As of 9:52 AM on Monday 24 Nov 2014 (Local Time) from KMFD Reporting Station
Overcast Overcast  
Wind Chill: 60°   Ceiling: 3700
Heat Index: 60°   Visibility: 10mi
Dew Point: 51°   Wind: 28mph
Humidity: 72%   Direction: 180°S
Pressure: 29.26"   Gusts: 46mph
Location:  40.7789°N, 82.5216°W
Report Text: KMFD 241452Z 18024G40KT 10SM SCT029 BKN037 OVC055 16/11 A2926 RMK AO2 PK WND 19040/1449 SLP905 T01560106 58009
Loading
Personal Weather Stations






























Interactive Weather Map New forecast layout! Learn more

10-Day Weather Forecast

Advertisements
Track Severe Weather on mobile